createdAt,value
2019-04-21T00:02:27.673Z,12.50
2019-04-21T00:05:40.183Z,12.50
2019-04-21T00:08:41.890Z,12.50
2019-04-21T00:11:48.352Z,12.50
2019-04-21T00:14:39.579Z,12.50
2019-04-21T00:17:32.038Z,12.40
2019-04-21T00:20:39.645Z,12.40
2019-04-21T00:23:53.826Z,12.30
2019-04-21T00:26:57.369Z,12.30
2019-04-21T00:30:01.815Z,12.20
2019-04-21T00:32:54.115Z,12.10
2019-04-21T00:35:56.222Z,12.10
2019-04-21T00:39:22.762Z,12.00
2019-04-21T00:42:09.928Z,11.80
2019-04-21T00:45:10.787Z,11.70
2019-04-21T00:48:16.900Z,11.60
2019-04-21T00:51:33.373Z,11.50
2019-04-21T00:54:28.023Z,11.40
2019-04-21T00:57:29.368Z,11.40
2019-04-21T01:00:27.168Z,11.30
2019-04-21T01:03:35.497Z,11.30
2019-04-21T01:06:36.908Z,11.20
2019-04-21T01:09:27.595Z,11.10
2019-04-21T01:12:37.310Z,11.10
2019-04-21T01:15:46.127Z,11.00
2019-04-21T01:18:41.328Z,10.90
2019-04-21T01:21:21.068Z,10.80
2019-04-21T01:24:31.881Z,10.80
2019-04-21T01:27:47.475Z,10.70
2019-04-21T01:30:44.914Z,10.70
2019-04-21T01:33:50.602Z,10.60
2019-04-21T01:36:52.900Z,10.50
2019-04-21T01:40:04.702Z,10.50
2019-04-21T01:42:56.786Z,10.40
2019-04-21T01:45:58.951Z,10.30
2019-04-21T01:48:56.964Z,10.30
2019-04-21T01:52:17.887Z,10.20
2019-04-21T01:55:12.451Z,10.20
2019-04-21T01:58:11.710Z,10.10
2019-04-21T02:01:21.201Z,10.10
2019-04-21T02:04:29.378Z,10.00
2019-04-21T02:07:27.066Z,10.00
2019-04-21T02:10:37.271Z,10.00
2019-04-21T02:13:27.933Z,9.90
2019-04-21T02:16:34.528Z,9.90
2019-04-21T02:19:32.580Z,9.90
2019-04-21T02:22:45.914Z,9.90
2019-04-21T02:25:39.964Z,9.80
2019-04-21T02:28:51.637Z,9.80
2019-04-21T02:31:59.566Z,9.80
2019-04-21T02:38:03.776Z,9.70
2019-04-21T02:46:58.304Z,9.60
2019-04-21T02:50:09.523Z,9.60
2019-04-21T02:53:09.625Z,9.50
2019-04-21T02:56:18.386Z,9.40
2019-04-21T03:02:36.702Z,9.30
2019-04-21T03:06:24.963Z,9.30
2019-04-21T03:09:21.492Z,9.30
2019-04-21T03:15:23.575Z,9.10
2019-04-21T03:18:26.520Z,9.10
2019-04-21T03:21:26.425Z,9.00
2019-04-21T03:24:29.400Z,9.00
2019-04-21T03:27:40.123Z,9.00
2019-04-21T03:31:01.592Z,8.90
2019-04-21T03:42:38.772Z,8.70
2019-04-21T03:49:02.250Z,8.70
2019-04-21T03:52:13.484Z,8.70
2019-04-21T03:55:41.425Z,8.60
2019-04-21T03:58:24.012Z,8.60
2019-04-21T04:01:21.941Z,8.60
2019-04-21T04:05:07.295Z,8.60
2019-04-21T04:07:50.158Z,8.50
2019-04-21T04:10:59.776Z,8.50
2019-04-21T04:14:04.272Z,8.50
2019-04-21T04:19:44.854Z,8.40
2019-04-21T04:24:22.611Z,8.40
2019-04-21T04:27:35.333Z,8.30
2019-04-21T04:33:30.414Z,8.20
2019-04-21T04:40:43.341Z,8.10
2019-04-21T04:43:44.604Z,8.10
2019-04-21T04:52:45.697Z,8.00
2019-04-21T04:55:46.128Z,8.00
2019-04-21T04:59:20.045Z,8.00
2019-04-21T05:02:00.284Z,8.00
2019-04-21T05:05:07.090Z,8.00
2019-04-21T05:08:43.940Z,8.00
2019-04-21T05:11:08.546Z,8.00
2019-04-21T05:14:18.315Z,8.00
2019-04-21T05:17:10.796Z,8.10
2019-04-21T05:22:58.315Z,8.50
2019-04-21T05:25:53.398Z,8.80
2019-04-21T05:28:56.552Z,9.30
2019-04-21T05:32:17.123Z,9.70
2019-04-21T05:35:20.072Z,10.10
2019-04-21T05:38:27.285Z,10.40
2019-04-21T05:41:22.102Z,10.70
2019-04-21T05:44:44.466Z,11.00
2019-04-21T05:47:51.992Z,11.20
2019-04-21T05:50:39.961Z,11.50
2019-04-21T05:53:52.114Z,11.70
2019-04-21T05:56:51.652Z,11.80
2019-04-21T05:59:49.100Z,12.00
2019-04-21T06:02:59.240Z,12.20
2019-04-21T06:08:58.327Z,12.50
2019-04-21T06:12:07.640Z,12.70
2019-04-21T06:15:02.622Z,12.90
2019-04-21T06:18:13.869Z,13.10
2019-04-21T06:21:21.989Z,13.30
2019-04-21T06:24:11.295Z,13.40
2019-04-21T06:27:19.259Z,13.50
2019-04-21T06:30:12.882Z,13.60
2019-04-21T06:33:20.226Z,13.70
2019-04-21T06:39:31.750Z,13.80
2019-04-21T06:42:34.244Z,14.00
2019-04-21T06:45:42.631Z,14.10
2019-04-21T06:48:40.947Z,14.20
2019-04-21T06:51:41.943Z,14.40
2019-04-21T06:55:02.465Z,14.50
2019-04-21T06:57:46.303Z,14.60
2019-04-21T07:00:45.552Z,14.70
2019-04-21T07:04:03.607Z,14.90
2019-04-21T07:06:55.758Z,15.00
2019-04-21T07:09:57.206Z,15.10
2019-04-21T07:12:51.070Z,15.20
2019-04-21T07:19:07.372Z,15.50
2019-04-21T07:22:09.016Z,15.70
2019-04-21T07:25:10.736Z,15.70
2019-04-21T07:28:03.000Z,15.80
2019-04-21T07:31:12.755Z,15.70
2019-04-21T07:34:16.053Z,15.70
2019-04-21T07:37:13.427Z,15.60
2019-04-21T07:40:10.678Z,15.60
2019-04-21T07:43:15.216Z,15.60
2019-04-21T07:46:10.700Z,15.70
2019-04-21T07:49:26.531Z,15.80
2019-04-21T07:52:42.951Z,15.80
2019-04-21T07:55:33.955Z,15.80
2019-04-21T07:58:51.084Z,15.90
2019-04-21T08:01:45.332Z,16.10
2019-04-21T08:07:54.289Z,16.10
2019-04-21T08:10:48.773Z,16.20
2019-04-21T08:13:53.046Z,16.30
2019-04-21T08:16:57.672Z,16.40
2019-04-21T08:19:56.151Z,16.30
2019-04-21T08:22:59.549Z,16.40
2019-04-21T08:26:04.888Z,16.40
2019-04-21T08:29:14.052Z,16.40
2019-04-21T08:32:10.555Z,16.50
2019-04-21T08:35:34.083Z,16.50
2019-04-21T08:38:09.975Z,16.50
2019-04-21T08:41:17.150Z,16.60
2019-04-21T08:44:23.203Z,16.70
2019-04-21T08:47:20.325Z,16.80
2019-04-21T08:50:20.919Z,16.80
2019-04-21T08:53:19.778Z,16.90
2019-04-21T08:56:27.768Z,16.90
2019-04-21T08:59:46.002Z,16.90
2019-04-21T09:02:56.092Z,17.00
2019-04-21T09:05:57.131Z,17.10
2019-04-21T09:09:05.291Z,17.20
2019-04-21T09:12:04.411Z,17.30
2019-04-21T09:15:08.858Z,17.40
2019-04-21T09:18:04.989Z,17.50
2019-04-21T09:21:13.592Z,17.50
2019-04-21T09:24:13.374Z,17.60
2019-04-21T09:27:08.512Z,17.70
2019-04-21T09:30:02.675Z,17.80
2019-04-21T09:33:00.530Z,18.00
2019-04-21T09:36:06.396Z,18.20
2019-04-21T09:39:14.291Z,18.40
2019-04-21T09:42:11.429Z,18.50
2019-04-21T09:45:14.288Z,18.70
2019-04-21T09:48:18.744Z,18.80
2019-04-21T09:51:17.820Z,18.90
2019-04-21T09:54:25.564Z,19.00
2019-04-21T09:57:31.356Z,19.00
2019-04-21T10:00:27.218Z,19.00
2019-04-21T10:03:36.183Z,19.00
2019-04-21T10:06:28.822Z,19.00
2019-04-21T10:09:31.128Z,19.00
2019-04-21T10:12:33.360Z,19.00
2019-04-21T10:15:35.622Z,19.10
2019-04-21T10:18:37.988Z,19.20
2019-04-21T10:21:40.315Z,19.20
2019-04-21T10:24:42.592Z,19.30
2019-04-21T10:27:45.234Z,19.40
2019-04-21T10:30:46.906Z,19.50
2019-04-21T10:33:50.267Z,19.50
2019-04-21T10:36:51.333Z,19.40
2019-04-21T10:39:53.839Z,19.30
2019-04-21T10:42:56.361Z,19.30
2019-04-21T10:45:59.000Z,19.30
2019-04-21T10:49:01.032Z,19.30
2019-04-21T10:52:04.693Z,19.30
2019-04-21T10:55:23.349Z,19.40
2019-04-21T10:58:11.148Z,19.40
2019-04-21T11:01:16.763Z,19.40
2019-04-21T11:04:29.000Z,19.40
2019-04-21T11:07:34.436Z,19.50
2019-04-21T11:10:33.989Z,19.50
2019-04-21T11:13:35.255Z,19.50
2019-04-21T11:16:37.493Z,19.60
2019-04-21T11:19:41.009Z,19.60
2019-04-21T11:22:41.979Z,19.60
2019-04-21T11:25:44.192Z,19.70
2019-04-21T11:28:47.227Z,19.60
2019-04-21T11:31:49.350Z,19.60
2019-04-21T11:34:51.500Z,19.70
2019-04-21T11:37:59.433Z,19.70
2019-04-21T11:40:55.930Z,19.70
2019-04-21T11:43:59.115Z,19.80
2019-04-21T11:47:00.521Z,19.70
2019-04-21T11:50:03.330Z,19.70
2019-04-21T11:53:05.326Z,19.70
2019-04-21T11:56:07.043Z,19.70
2019-04-21T11:59:09.984Z,19.80
2019-04-21T12:02:11.976Z,19.80
2019-04-21T12:05:15.038Z,19.70
2019-04-21T12:08:24.540Z,19.70
2019-04-21T12:11:18.253Z,19.70
2019-04-21T12:14:21.670Z,19.70
2019-04-21T12:17:23.715Z,19.70
2019-04-21T12:20:26.326Z,19.70
2019-04-21T12:23:27.275Z,19.80
2019-04-21T12:26:29.614Z,19.90
2019-04-21T12:29:31.896Z,19.90
2019-04-21T12:32:42.162Z,20.00
2019-04-21T12:35:43.942Z,20.00
2019-04-21T12:38:50.858Z,20.00
2019-04-21T12:41:48.899Z,20.00
2019-04-21T12:44:51.644Z,20.00
2019-04-21T12:47:53.924Z,20.00
2019-04-21T12:50:54.968Z,20.00
2019-04-21T12:53:57.502Z,20.00
2019-04-21T12:56:59.636Z,20.00
2019-04-21T13:00:02.901Z,20.10
2019-04-21T13:03:04.203Z,20.00
2019-04-21T13:06:07.595Z,20.10
2019-04-21T13:09:11.166Z,20.10
2019-04-21T13:12:11.110Z,20.10
2019-04-21T13:15:13.655Z,20.20
2019-04-21T13:18:16.450Z,20.20
2019-04-21T13:21:18.135Z,20.20
2019-04-21T13:24:20.002Z,20.30
2019-04-21T13:27:22.642Z,20.30
2019-04-21T13:30:24.568Z,20.30
2019-04-21T13:33:27.207Z,20.40
2019-04-21T13:36:29.640Z,20.50
2019-04-21T13:41:57.016Z,20.50
2019-04-21T13:44:46.656Z,20.40
2019-04-21T13:47:48.627Z,20.40
2019-04-21T13:50:51.192Z,20.40
2019-04-21T13:53:53.595Z,20.40
2019-04-21T13:56:56.551Z,20.40
2019-04-21T13:59:57.543Z,20.50
2019-04-21T14:03:00.856Z,20.40
2019-04-21T14:06:02.575Z,20.40
2019-04-21T14:09:07.374Z,20.40
2019-04-21T14:12:09.714Z,20.40
2019-04-21T14:15:12.402Z,20.50
2019-04-21T14:18:13.249Z,20.50
2019-04-21T14:21:15.544Z,20.50
2019-04-21T14:24:19.009Z,20.50
2019-04-21T14:27:20.487Z,20.50
2019-04-21T14:30:22.781Z,20.60
2019-04-21T14:33:25.721Z,20.60
2019-04-21T14:36:26.815Z,20.60
2019-04-21T14:39:30.303Z,20.60
2019-04-21T14:42:31.957Z,20.70
2019-04-21T14:45:39.035Z,20.60
2019-04-21T14:48:48.752Z,20.70
2019-04-21T14:51:55.120Z,20.70
2019-04-21T14:55:02.736Z,20.70
2019-04-21T14:58:03.715Z,20.80
2019-04-21T15:01:06.092Z,20.70
2019-04-21T15:04:08.215Z,20.70
2019-04-21T15:07:10.469Z,20.70
2019-04-21T15:10:18.491Z,20.60
2019-04-21T15:13:14.935Z,20.60
2019-04-21T15:16:18.356Z,20.60
2019-04-21T15:19:20.435Z,20.50
2019-04-21T15:22:21.624Z,20.60
2019-04-21T15:25:23.892Z,20.60
2019-04-21T15:28:28.893Z,20.50
2019-04-21T15:31:33.930Z,20.50
2019-04-21T15:34:31.865Z,20.50
2019-04-21T15:37:33.810Z,20.50
2019-04-21T15:40:41.902Z,20.60
2019-04-21T15:43:38.541Z,20.60
2019-04-21T15:46:39.981Z,20.60
2019-04-21T15:49:55.061Z,20.50
2019-04-21T15:52:50.089Z,20.50
2019-04-21T15:55:59.196Z,20.50
2019-04-21T15:59:06.840Z,20.50
2019-04-21T16:02:14.954Z,20.50
2019-04-21T16:05:17.051Z,20.40
2019-04-21T16:08:20.638Z,20.40
2019-04-21T16:11:21.945Z,20.40
2019-04-21T16:14:24.837Z,20.40
2019-04-21T16:17:27.492Z,20.40
2019-04-21T16:20:28.270Z,20.40
2019-04-21T16:23:30.765Z,20.40
2019-04-21T16:26:32.989Z,20.30
2019-04-21T16:29:35.864Z,20.30
2019-04-21T16:32:38.420Z,20.30
2019-04-21T16:35:39.937Z,20.30
2019-04-21T16:38:41.862Z,20.20
2019-04-21T16:41:44.571Z,20.10
2019-04-21T16:44:47.204Z,20.10
2019-04-21T16:47:51.731Z,20.10
2019-04-21T16:50:51.998Z,20.10
2019-04-21T16:53:57.767Z,20.10
2019-04-21T16:57:05.951Z,20.00
2019-04-21T17:00:10.714Z,19.90
2019-04-21T17:03:12.547Z,19.80
2019-04-21T17:06:15.241Z,19.80
2019-04-21T17:09:16.852Z,19.70
2019-04-21T17:12:20.609Z,19.70
2019-04-21T17:15:37.570Z,19.70
2019-04-21T17:18:40.650Z,19.60
2019-04-21T17:21:26.053Z,19.60
2019-04-21T17:24:28.600Z,19.60
2019-04-21T17:27:31.219Z,19.50
2019-04-21T17:30:32.627Z,19.50
2019-04-21T17:33:35.538Z,19.50
2019-04-21T17:36:37.219Z,19.40
2019-04-21T17:39:40.620Z,19.30
2019-04-21T17:42:46.549Z,19.30
2019-04-21T17:45:44.906Z,19.20
2019-04-21T17:48:47.217Z,19.20
2019-04-21T17:51:58.621Z,19.10
2019-04-21T17:55:09.264Z,19.10
2019-04-21T17:58:16.287Z,19.00
2019-04-21T18:01:25.136Z,18.90
2019-04-21T18:04:42.236Z,18.90
2019-04-21T18:07:31.464Z,18.80
2019-04-21T18:10:33.866Z,18.80
2019-04-21T18:13:19.183Z,18.80
2019-04-21T18:16:26.616Z,18.70
2019-04-21T18:19:26.150Z,18.70
2019-04-21T18:24:40.686Z,18.60
2019-04-21T18:27:30.283Z,18.50
2019-04-21T18:30:42.324Z,18.40
2019-04-21T18:33:49.411Z,18.30
2019-04-21T18:36:56.029Z,18.30
2019-04-21T18:40:06.882Z,18.20
2019-04-21T18:43:44.799Z,18.20
2019-04-21T18:46:34.080Z,18.10
2019-04-21T18:49:19.538Z,18.00
2019-04-21T18:52:41.435Z,17.90
2019-04-21T18:55:37.336Z,17.90
2019-04-21T18:58:32.560Z,17.80
2019-04-21T19:01:36.575Z,17.70
2019-04-21T19:04:38.741Z,17.60
2019-04-21T19:07:58.350Z,17.60
2019-04-21T19:11:02.508Z,17.60
2019-04-21T19:14:32.287Z,17.50
2019-04-21T19:20:24.185Z,17.40
2019-04-21T19:23:21.615Z,17.30
2019-04-21T19:26:31.506Z,17.20
2019-04-21T19:29:28.859Z,17.20
2019-04-21T19:32:31.724Z,17.10
2019-04-21T19:35:14.400Z,17.10
2019-04-21T19:38:19.109Z,17.00
2019-04-21T19:41:30.049Z,17.00
2019-04-21T19:44:38.308Z,16.90
2019-04-21T19:47:47.282Z,16.90
2019-04-21T19:50:47.099Z,16.80
2019-04-21T19:53:42.578Z,16.70
2019-04-21T19:56:28.121Z,16.70
2019-04-21T19:59:36.602Z,16.70
2019-04-21T20:02:32.605Z,16.60
2019-04-21T20:05:43.025Z,16.60
2019-04-21T20:08:54.343Z,16.50
2019-04-21T20:11:55.830Z,16.40
2019-04-21T20:15:16.833Z,16.40
2019-04-21T20:17:58.573Z,16.30
2019-04-21T20:20:46.116Z,16.30
2019-04-21T20:23:49.469Z,16.20
2019-04-21T20:27:01.231Z,16.20
2019-04-21T20:30:06.796Z,16.10
2019-04-21T20:33:35.263Z,16.10
2019-04-21T20:36:25.208Z,16.00
2019-04-21T20:39:07.276Z,15.90
2019-04-21T20:42:16.629Z,15.90
2019-04-21T20:48:18.004Z,15.80
2019-04-21T20:51:28.454Z,15.70
2019-04-21T20:54:30.118Z,15.70
2019-04-21T20:57:30.164Z,15.70
2019-04-21T21:00:34.023Z,15.60
2019-04-21T21:03:34.846Z,15.60
2019-04-21T21:06:36.097Z,15.60
2019-04-21T21:09:41.500Z,15.60
2019-04-21T21:12:51.264Z,15.60
2019-04-21T21:15:52.756Z,15.50
2019-04-21T21:19:08.163Z,15.50
2019-04-21T21:21:44.219Z,15.50
2019-04-21T21:24:52.013Z,15.50
2019-04-21T21:27:48.223Z,15.50
2019-04-21T21:30:55.824Z,15.40
2019-04-21T21:34:04.728Z,15.40
2019-04-21T21:37:08.668Z,15.30
2019-04-21T21:40:08.252Z,15.30
2019-04-21T21:42:48.136Z,15.20
2019-04-21T21:45:55.537Z,15.20
2019-04-21T21:49:03.078Z,15.10
2019-04-21T21:52:02.997Z,15.10
2019-04-21T21:54:56.371Z,15.00
2019-04-21T21:58:03.489Z,15.00
2019-04-21T22:01:04.479Z,15.00
2019-04-21T22:04:12.721Z,14.90
2019-04-21T22:07:09.728Z,14.90
2019-04-21T22:10:08.522Z,14.90
2019-04-21T22:13:14.715Z,14.80
2019-04-21T22:16:14.473Z,14.80
2019-04-21T22:19:32.479Z,14.80
2019-04-21T22:22:31.327Z,14.80
2019-04-21T22:25:25.056Z,14.80
2019-04-21T22:28:22.120Z,14.80
2019-04-21T22:31:28.413Z,14.70
2019-04-21T22:34:31.466Z,14.60
2019-04-21T22:37:41.445Z,14.60
2019-04-21T22:40:46.328Z,14.50
2019-04-21T22:43:39.993Z,14.50
2019-04-21T22:46:36.139Z,14.40
2019-04-21T22:49:37.049Z,14.40
2019-04-21T22:52:39.404Z,14.30
2019-04-21T22:55:42.950Z,14.20
2019-04-21T22:58:44.802Z,14.20
2019-04-21T23:01:48.764Z,14.10
2019-04-21T23:04:53.283Z,14.10
2019-04-21T23:07:58.162Z,14.00
2019-04-21T23:10:59.817Z,13.90
2019-04-21T23:14:03.988Z,13.90
2019-04-21T23:17:21.159Z,13.80
2019-04-21T23:20:19.497Z,13.70
2019-04-21T23:23:22.111Z,13.70
2019-04-21T23:26:21.943Z,13.60
2019-04-21T23:29:25.719Z,13.60
2019-04-21T23:32:23.866Z,13.50
2019-04-21T23:35:18.787Z,13.50
2019-04-21T23:38:14.720Z,13.40
2019-04-21T23:41:15.350Z,13.40
2019-04-21T23:44:20.188Z,13.30
2019-04-21T23:47:29.172Z,13.30
2019-04-21T23:50:35.200Z,13.30
2019-04-21T23:53:25.583Z,13.20
2019-04-21T23:56:33.028Z,13.20
2019-04-21T23:59:32.389Z,13.10
